Time;durP1;ratioP1;P1;durP2;ratioP2;P2;SDS_P1;SDS_P2;PMS_P1;PMS_P2;Temp;Humidity;BMP_temperature;BMP_pressure;BME280_temperature;BME280_humidity;BME280_pressure;Samples;Min_cycle;Max_cycle;Signal;HPM_P1;HPM_P2
2023/09/21 00:01:03;;;;;;;9.15;3.53;;;16.90;99.90;;;;;;5015358;28;20048;-81
2023/09/21 00:03:34;;;;;;;5.93;3.40;;;16.90;99.90;;;;;;5016836;28;20123;-81
2023/09/21 00:06:01;;;;;;;8.63;3.65;;;16.90;99.90;;;;;;5016833;28;20046;-82
2023/09/21 00:08:26;;;;;;;7.47;3.50;;;16.90;99.90;;;;;;5016920;28;20046;-81
2023/09/21 00:10:54;;;;;;;6.00;3.40;;;17.00;99.90;;;;;;5015494;28;20045;-82
2023/09/21 00:13:22;;;;;;;9.15;3.25;;;17.00;99.90;;;;;;5015658;28;20058;-81
2023/09/21 00:15:49;;;;;;;6.95;3.03;;;17.00;99.90;;;;;;5016391;28;20489;-81
2023/09/21 00:18:14;;;;;;;7.80;3.58;;;17.00;99.90;;;;;;5016669;28;20172;-83
2023/09/21 00:20:48;;;;;;;6.38;3.55;;;17.00;99.90;;;;;;5015413;28;20046;-81
2023/09/21 00:23:14;;;;;;;7.78;2.95;;;17.00;99.90;;;;;;5015312;28;20053;-82
2023/09/21 00:25:42;;;;;;;5.43;2.90;;;17.00;99.90;;;;;;5014350;28;20046;-81
2023/09/21 00:28:08;;;;;;;7.18;3.38;;;17.00;99.90;;;;;;5015276;28;20085;-81
2023/09/21 00:30:37;;;;;;;9.13;3.30;;;17.00;99.90;;;;;;5016242;28;20464;-81
2023/09/21 00:33:07;;;;;;;6.75;3.33;;;17.00;99.90;;;;;;5016354;28;20046;-81
2023/09/21 00:35:33;;;;;;;6.88;3.13;;;17.00;99.90;;;;;;5016351;28;20073;-82
2023/09/21 00:38:00;;;;;;;9.63;3.33;;;17.00;99.90;;;;;;5014960;28;20065;-82
2023/09/21 00:40:26;;;;;;;6.40;3.30;;;17.00;99.90;;;;;;5014850;28;20057;-81
2023/09/21 00:42:52;;;;;;;8.63;2.78;;;17.00;99.90;;;;;;5015036;28;20057;-81
2023/09/21 00:45:21;;;;;;;8.63;3.25;;;17.00;99.90;;;;;;5014693;28;20469;-82
2023/09/21 00:47:52;;;;;;;5.93;3.10;;;17.00;99.90;;;;;;5014937;28;20056;-81
2023/09/21 00:50:22;;;;;;;6.60;3.00;;;17.00;99.90;;;;;;5015042;28;20046;-83
2023/09/21 00:52:53;;;;;;;8.82;3.30;;;17.10;99.90;;;;;;5014691;28;20092;-83
2023/09/21 00:55:30;;;;;;;6.97;3.15;;;17.10;99.90;;;;;;5014478;28;20048;-81
2023/09/21 00:58:02;;;;;;;7.97;3.47;;;17.10;99.90;;;;;;5014807;28;20092;-82
2023/09/21 01:00:30;;;;;;;10.02;3.40;;;17.10;99.90;;;;;;5014753;28;20046;-82
2023/09/21 01:03:07;;;;;;;11.10;3.42;;;17.10;99.90;;;;;;5015729;28;20053;-83
2023/09/21 01:05:36;;;;;;;6.97;3.30;;;17.10;99.90;;;;;;5015795;28;20068;-81
2023/09/21 01:08:05;;;;;;;6.93;3.60;;;17.20;99.90;;;;;;5015642;28;20041;-81
2023/09/21 01:10:33;;;;;;;6.80;3.28;;;17.20;99.90;;;;;;5014293;28;20056;-82
2023/09/21 01:12:59;;;;;;;4.82;2.97;;;17.20;99.90;;;;;;5014505;28;20054;-82
2023/09/21 01:15:25;;;;;;;8.35;3.40;;;17.20;99.90;;;;;;5014095;28;20440;-81
2023/09/21 01:17:52;;;;;;;8.48;3.00;;;17.20;99.90;;;;;;5015436;28;20041;-83
2023/09/21 01:20:27;;;;;;;8.18;3.50;;;17.20;99.90;;;;;;5015463;28;20037;-81
2023/09/21 01:23:18;;;;;;;5.80;3.05;;;17.20;99.90;;;;;;5014751;28;20496;-83
2023/09/21 01:25:52;;;;;;;6.25;2.70;;;17.20;99.90;;;;;;5015415;28;20073;-83
2023/09/21 01:28:22;;;;;;;11.20;3.28;;;17.30;99.90;;;;;;5014307;28;20053;-82
2023/09/21 01:30:49;;;;;;;7.85;3.03;;;17.30;99.90;;;;;;5014080;28;20173;-82
2023/09/21 01:33:15;;;;;;;7.90;3.45;;;17.40;99.90;;;;;;5015009;28;20107;-81
2023/09/21 01:35:45;;;;;;;7.25;3.00;;;17.40;99.90;;;;;;5013832;28;20082;-85
2023/09/21 01:38:14;;;;;;;6.35;2.72;;;17.40;99.90;;;;;;5013802;28;20052;-81
2023/09/21 01:40:41;;;;;;;7.43;2.90;;;17.40;99.90;;;;;;5013926;28;20421;-81
2023/09/21 01:43:16;;;;;;;6.13;3.25;;;17.50;99.90;;;;;;5013607;28;20053;-82
2023/09/21 01:45:45;;;;;;;7.25;3.78;;;17.50;99.90;;;;;;5013860;28;20046;-83
2023/09/21 01:48:11;;;;;;;6.38;2.95;;;17.50;99.90;;;;;;5013839;28;20176;-81
2023/09/21 01:50:41;;;;;;;7.13;3.13;;;17.50;99.90;;;;;;5013588;28;20042;-81
2023/09/21 01:53:12;;;;;;;4.18;2.60;;;17.60;99.90;;;;;;5013554;28;20508;-82
2023/09/21 01:55:39;;;;;;;5.90;3.13;;;17.50;99.90;;;;;;5013627;28;20132;-83
2023/09/21 01:58:06;;;;;;;7.57;2.65;;;17.50;99.90;;;;;;5013373;28;20057;-80
2023/09/21 02:00:35;;;;;;;7.53;2.95;;;17.60;99.90;;;;;;5013139;28;20116;-82
2023/09/21 02:03:06;;;;;;;6.78;2.80;;;17.70;99.90;;;;;;5013174;28;20054;-81
2023/09/21 02:05:32;;;;;;;7.70;3.17;;;17.80;99.90;;;;;;5013697;28;20037;-83
2023/09/21 02:07:58;;;;;;;8.48;3.08;;;17.70;99.90;;;;;;5013547;28;20046;-82
2023/09/21 02:10:24;;;;;;;6.50;3.03;;;17.80;99.90;;;;;;5013453;28;20054;-81
2023/09/21 02:12:58;;;;;;;6.93;2.70;;;17.80;99.90;;;;;;5013385;28;20057;-81
2023/09/21 02:15:26;;;;;;;5.93;3.08;;;17.80;99.90;;;;;;5012973;28;20046;-81
2023/09/21 02:17:55;;;;;;;7.25;3.15;;;17.80;99.90;;;;;;5013456;28;20136;-82
2023/09/21 02:20:28;;;;;;;4.80;2.65;;;17.80;99.90;;;;;;5013125;28;20085;-82
2023/09/21 02:23:03;;;;;;;;;;;17.80;99.90;;;;;;5013435;28;20053;-82
2023/09/21 02:25:34;;;;;;;6.95;2.83;;;17.70;99.90;;;;;;5013239;28;20407;-82
2023/09/21 02:28:04;;;;;;;6.85;2.63;;;17.80;99.90;;;;;;5013264;28;20428;-82
2023/09/21 02:30:33;;;;;;;9.25;3.40;;;17.70;99.90;;;;;;5013249;28;20124;-81
2023/09/21 02:32:59;;;;;;;8.02;3.20;;;17.70;99.90;;;;;;5013174;28;20046;-81
2023/09/21 02:35:29;;;;;;;6.22;2.45;;;17.70;99.90;;;;;;5014052;28;20053;-80
2023/09/21 02:37:56;;;;;;;5.43;2.67;;;17.80;99.90;;;;;;5014238;28;20049;-82
2023/09/21 02:40:23;;;;;;;6.18;2.85;;;17.70;99.90;;;;;;5013078;28;20049;-80
2023/09/21 02:42:54;;;;;;;8.57;3.22;;;17.70;99.90;;;;;;5012699;28;20049;-81
2023/09/21 02:45:23;;;;;;;5.68;3.03;;;17.80;99.90;;;;;;5013059;28;20112;-83
2023/09/21 02:47:51;;;;;;;6.95;2.90;;;17.80;99.90;;;;;;5012205;28;20108;-83
2023/09/21 02:50:27;;;;;;;5.88;3.15;;;17.80;99.90;;;;;;5013920;28;20042;-81
2023/09/21 02:52:56;;;;;;;7.70;2.88;;;17.70;99.90;;;;;;5012957;28;20489;-82
2023/09/21 02:55:24;;;;;;;5.20;2.60;;;17.70;99.90;;;;;;5012951;28;20045;-81
2023/09/21 02:57:59;;;;;;;6.65;2.70;;;17.80;99.90;;;;;;5012846;28;20473;-81
2023/09/21 03:00:34;;;;;;;7.57;3.33;;;17.80;99.90;;;;;;5013926;28;20091;-81
2023/09/21 03:03:01;;;;;;;4.82;2.80;;;17.70;99.90;;;;;;5012794;28;20105;-81
2023/09/21 03:05:27;;;;;;;7.53;3.03;;;17.70;99.90;;;;;;5012524;28;20058;-82
2023/09/21 03:07:56;;;;;;;5.35;2.60;;;17.70;99.90;;;;;;5013851;28;20124;-82
2023/09/21 03:10:24;;;;;;;5.43;2.47;;;17.80;99.90;;;;;;5013696;28;20429;-83
2023/09/21 03:12:51;;;;;;;7.30;2.58;;;17.80;99.90;;;;;;5013836;28;20061;-81
2023/09/21 03:15:19;;;;;;;6.28;3.00;;;17.80;99.90;;;;;;5013506;28;20436;-81
2023/09/21 03:17:47;;;;;;;7.72;2.80;;;17.80;99.90;;;;;;5013831;28;20048;-86
2023/09/21 03:20:31;;;;;;;6.38;2.75;;;17.80;99.90;;;;;;5012535;28;20041;-81
2023/09/21 03:22:57;;;;;;;6.90;2.90;;;17.90;99.90;;;;;;5013627;28;20509;-82
2023/09/21 03:25:33;;;;;;;7.22;3.40;;;17.80;99.90;;;;;;5012317;28;20050;-81
2023/09/21 03:28:24;;;;;;;8.73;3.33;;;17.90;99.90;;;;;;5012570;28;20089;-84
2023/09/21 03:30:50;;;;;;;10.07;2.97;;;17.80;99.90;;;;;;5011751;28;20050;-82
2023/09/21 03:33:19;;;;;;;7.95;3.00;;;17.90;99.90;;;;;;5012585;28;20093;-81
2023/09/21 03:35:46;;;;;;;6.43;3.53;;;17.80;99.90;;;;;;5012476;28;20054;-81
2023/09/21 03:38:21;;;;;;;6.22;2.88;;;17.90;99.90;;;;;;5013464;28;20107;-84
2023/09/21 03:40:50;;;;;;;5.93;2.58;;;17.80;99.90;;;;;;5013282;28;20204;-81
2023/09/21 03:43:18;;;;;;;7.65;2.88;;;17.80;99.90;;;;;;5012215;28;20056;-81
2023/09/21 03:45:44;;;;;;;7.85;3.03;;;17.90;99.90;;;;;;5013434;28;20057;-82
2023/09/21 03:48:11;;;;;;;7.25;2.83;;;17.80;99.90;;;;;;5013450;28;20052;-83
2023/09/21 03:50:38;;;;;;;5.63;2.80;;;17.80;99.90;;;;;;5012080;28;20081;-81
2023/09/21 03:53:08;;;;;;;8.15;3.05;;;17.90;99.90;;;;;;5013292;28;20458;-81
2023/09/21 03:55:35;;;;;;;6.13;2.63;;;17.90;99.90;;;;;;5012390;28;20078;-81
2023/09/21 03:58:03;;;;;;;5.47;2.65;;;17.80;99.90;;;;;;5012390;28;20054;-81
2023/09/21 04:02:54;;;;;;;5.10;2.72;;;17.90;99.90;;;;;;5015469;28;20050;-81
2023/09/21 04:05:23;;;;;;;7.22;3.25;;;17.80;99.90;;;;;;5015526;28;20401;-81
2023/09/21 04:07:49;;;;;;;4.93;2.55;;;17.80;99.90;;;;;;5016677;28;20100;-81
2023/09/21 04:10:15;;;;;;;7.45;3.00;;;17.80;99.90;;;;;;5015774;28;20041;-82
2023/09/21 04:12:42;;;;;;;6.22;2.88;;;17.80;99.90;;;;;;5015511;28;20045;-81
2023/09/21 04:15:08;;;;;;;4.93;2.97;;;17.80;99.90;;;;;;5015371;28;20053;-81
2023/09/21 04:17:35;;;;;;;7.60;2.78;;;17.80;99.90;;;;;;5015362;28;20081;-82
2023/09/21 04:20:11;;;;;;;5.95;2.80;;;17.80;99.90;;;;;;5015491;28;20409;-81
2023/09/21 04:22:41;;;;;;;9.73;2.65;;;17.80;99.90;;;;;;5015218;28;20061;-80
2023/09/21 04:25:08;;;;;;;5.47;2.70;;;17.90;99.90;;;;;;5015484;28;20473;-82
2023/09/21 04:27:38;;;;;;;6.00;2.88;;;17.90;99.90;;;;;;5015449;28;20394;-81
2023/09/21 04:30:08;;;;;;;7.15;3.00;;;17.90;99.90;;;;;;5015233;28;20045;-81
2023/09/21 04:32:35;;;;;;;8.52;3.20;;;17.90;99.90;;;;;;5014916;28;20065;-80
2023/09/21 04:35:05;;;;;;;6.07;3.03;;;17.90;99.90;;;;;;5015158;28;20077;-81
2023/09/21 04:37:33;;;;;;;7.00;2.83;;;17.80;99.90;;;;;;5015016;28;20073;-81
2023/09/21 04:39:58;;;;;;;6.50;2.75;;;17.90;99.90;;;;;;5014923;28;20073;-81
2023/09/21 04:42:24;;;;;;;7.38;3.22;;;17.80;99.90;;;;;;5014693;28;20056;-81
2023/09/21 04:44:49;;;;;;;6.22;2.78;;;17.80;99.90;;;;;;5016184;28;20041;-82
2023/09/21 04:47:15;;;;;;;5.85;2.30;;;17.70;99.90;;;;;;5016140;28;20069;-82
2023/09/21 04:49:41;;;;;;;7.03;2.85;;;17.70;99.90;;;;;;5015006;28;20042;-81
2023/09/21 04:52:06;;;;;;;7.32;2.90;;;17.70;99.90;;;;;;5014759;28;20054;-81
2023/09/21 04:54:32;;;;;;;7.75;3.20;;;17.60;99.90;;;;;;5014785;28;20133;-81
2023/09/21 04:56:57;;;;;;;5.60;3.20;;;17.60;99.90;;;;;;5014708;28;20125;-81
2023/09/21 04:59:23;;;;;;;6.50;2.63;;;17.60;99.90;;;;;;5015898;28;20393;-82
2023/09/21 05:01:49;;;;;;;6.25;2.85;;;17.50;99.90;;;;;;5014387;28;20042;-81
2023/09/21 05:04:14;;;;;;;9.38;3.05;;;17.50;99.90;;;;;;5015759;28;20048;-81
2023/09/21 05:06:40;;;;;;;4.72;2.60;;;17.50;99.90;;;;;;5015722;28;20045;-81
2023/09/21 05:09:06;;;;;;;7.97;2.90;;;17.50;99.90;;;;;;5015473;28;20393;-81
2023/09/21 05:11:38;;;;;;;6.15;3.08;;;17.40;99.90;;;;;;5014803;28;20482;-81
2023/09/21 05:14:05;;;;;;;;;;;17.50;99.90;;;;;;5014543;28;20046;-81
2023/09/21 05:16:32;;;;;;;6.72;2.45;;;17.50;99.90;;;;;;5015061;28;19959;-81
2023/09/21 05:18:58;;;;;;;8.00;3.05;;;17.40;99.90;;;;;;5013944;28;20145;-81
2023/09/21 05:21:24;;;;;;;7.53;2.78;;;17.40;99.90;;;;;;5015154;28;20038;-80
2023/09/21 05:23:49;;;;;;;8.18;2.83;;;17.50;99.90;;;;;;5015145;28;20061;-81
2023/09/21 05:26:15;;;;;;;7.38;2.78;;;17.40;99.90;;;;;;5013805;28;20033;-82
2023/09/21 05:28:44;;;;;;;8.15;3.08;;;17.50;99.90;;;;;;5013601;28;20046;-83
2023/09/21 05:31:10;;;;;;;6.97;2.75;;;17.40;99.90;;;;;;5015243;28;20072;-81
2023/09/21 05:33:36;;;;;;;7.88;3.13;;;17.40;99.90;;;;;;5013675;28;20049;-81
2023/09/21 05:36:04;;;;;;;5.53;2.90;;;17.40;99.90;;;;;;5013816;28;20180;-81
2023/09/21 05:38:32;;;;;;;6.35;2.30;;;17.40;99.90;;;;;;5013809;28;20099;-81
2023/09/21 05:41:02;;;;;;;7.03;3.28;;;17.40;99.90;;;;;;5013688;28;20053;-82
2023/09/21 05:43:29;;;;;;;8.15;3.05;;;17.40;99.90;;;;;;5013653;28;20081;-81
2023/09/21 05:45:55;;;;;;;9.10;3.25;;;17.40;99.90;;;;;;5014975;28;20033;-82
2023/09/21 05:48:21;;;;;;;6.22;3.10;;;17.30;99.90;;;;;;5013713;28;20041;-81
2023/09/21 05:50:46;;;;;;;5.90;2.70;;;17.30;99.90;;;;;;5013543;28;20077;-80
2023/09/21 05:53:12;;;;;;;5.47;2.83;;;17.40;99.90;;;;;;5013259;28;20042;-80
2023/09/21 05:55:38;;;;;;;5.18;2.60;;;17.30;99.90;;;;;;5013183;28;20049;-81
2023/09/21 05:58:07;;;;;;;5.65;2.80;;;17.30;99.90;;;;;;5013390;28;20052;-81
2023/09/21 06:00:33;;;;;;;7.78;2.90;;;17.30;99.90;;;;;;5013437;28;20467;-81
2023/09/21 06:03:02;;;;;;;4.43;2.50;;;17.30;99.90;;;;;;5013107;28;20128;-81
2023/09/21 06:05:28;;;;;;;4.97;2.58;;;17.30;99.90;;;;;;5012911;28;20408;-81
2023/09/21 06:07:55;;;;;;;7.97;3.00;;;17.30;99.90;;;;;;5013127;28;20485;-80
2023/09/21 06:10:25;;;;;;;6.90;2.75;;;17.30;99.90;;;;;;5013076;28;20046;-80
2023/09/21 06:12:51;;;;;;;5.55;3.20;;;17.40;99.90;;;;;;5013205;28;20132;-82
2023/09/21 06:15:18;;;;;;;6.13;2.83;;;17.30;99.90;;;;;;5014011;28;20215;-81
2023/09/21 06:17:45;;;;;;;6.30;2.85;;;17.30;99.90;;;;;;5014121;28;20397;-81
2023/09/21 06:20:11;;;;;;;6.20;3.17;;;17.30;99.90;;;;;;5013112;28;20474;-81
2023/09/21 06:22:37;;;;;;;5.50;3.45;;;17.20;99.90;;;;;;5012255;28;20057;-81
2023/09/21 06:25:06;;;;;;;8.90;3.10;;;17.20;99.90;;;;;;5007358;28;20038;-79
2023/09/21 06:27:32;;;;;;;6.38;2.97;;;17.10;99.90;;;;;;4993258;28;20057;-80
2023/09/21 06:29:58;;;;;;;6.85;3.22;;;17.00;99.90;;;;;;4992917;28;20406;-81
2023/09/21 06:32:24;;;;;;;5.72;2.85;;;17.00;99.90;;;;;;4992900;28;20462;-83
2023/09/21 06:34:53;;;;;;;7.05;2.65;;;17.00;99.90;;;;;;4993141;28;20072;-83
2023/09/21 06:37:19;;;;;;;7.40;3.10;;;16.90;99.90;;;;;;4992881;28;20482;-83
2023/09/21 06:39:45;;;;;;;5.95;3.35;;;16.80;99.90;;;;;;4992833;28;20057;-82
2023/09/21 06:42:11;;;;;;;8.35;3.50;;;16.80;99.90;;;;;;4992764;28;20054;-82
2023/09/21 06:44:38;;;;;;;8.48;3.60;;;16.70;99.90;;;;;;4993087;28;20622;-83
2023/09/21 06:47:04;;;;;;;8.57;3.58;;;16.70;99.90;;;;;;4992563;28;20094;-82
2023/09/21 06:49:30;;;;;;;5.07;3.33;;;16.70;99.90;;;;;;4992854;28;20082;-82
2023/09/21 06:51:56;;;;;;;6.40;3.20;;;16.60;99.90;;;;;;4992703;28;20082;-81
2023/09/21 06:54:27;;;;;;;5.07;3.42;;;16.60;99.90;;;;;;4992728;28;20038;-82
2023/09/21 06:56:54;;;;;;;7.93;3.60;;;16.60;99.90;;;;;;4992589;28;20050;-82
2023/09/21 06:59:20;;;;;;;9.32;3.33;;;16.60;99.90;;;;;;4992571;28;20494;-83
2023/09/21 07:01:46;;;;;;;9.05;3.65;;;16.60;99.90;;;;;;4993858;28;20056;-82
2023/09/21 07:04:11;;;;;;;7.10;3.55;;;16.60;99.90;;;;;;4992599;28;20050;-83
2023/09/21 07:06:39;;;;;;;8.32;3.70;;;16.50;99.90;;;;;;4992537;28;20080;-82
2023/09/21 07:09:07;;;;;;;7.25;3.15;;;16.50;99.90;;;;;;4992475;28;20401;-82
2023/09/21 07:11:34;;;;;;;6.60;3.80;;;16.60;99.90;;;;;;4992503;28;20050;-81
2023/09/21 07:14:00;;;;;;;7.85;3.63;;;16.60;99.90;;;;;;4992446;28;20046;-81
2023/09/21 07:16:27;;;;;;;8.45;3.58;;;16.50;99.90;;;;;;4992364;28;20498;-82
2023/09/21 07:18:52;;;;;;;6.53;3.47;;;16.50;99.90;;;;;;4992490;28;20050;-82
2023/09/21 07:21:18;;;;;;;6.22;3.63;;;16.50;99.90;;;;;;4992361;28;20057;-82
2023/09/21 07:23:44;;;;;;;6.88;3.53;;;16.50;99.90;;;;;;4992619;28;20077;-81
2023/09/21 07:26:10;;;;;;;6.10;3.30;;;16.50;99.90;;;;;;4992880;28;20048;-81
2023/09/21 07:28:35;;;;;;;7.15;3.50;;;16.50;99.90;;;;;;4992201;28;20200;-80
2023/09/21 07:31:03;;;;;;;6.05;3.63;;;16.50;99.90;;;;;;4992303;28;20054;-80
2023/09/21 07:36:05;;;;;;;9.90;4.35;;;16.50;99.90;;;;;;5514326;22;20058;-80
2023/09/21 07:38:30;;;;;;;6.75;3.67;;;16.50;99.90;;;;;;5017176;28;20100;-82
2023/09/21 07:40:56;;;;;;;6.72;3.80;;;16.50;99.90;;;;;;5016792;28;20129;-80
2023/09/21 07:43:22;;;;;;;8.23;3.50;;;16.50;99.90;;;;;;4999128;28;20068;-79
2023/09/21 07:45:49;;;;;;;5.57;2.33;;;16.50;99.90;;;;;;4999482;28;20042;-85
2023/09/21 07:48:16;;;;;;;2.45;1.00;;;16.40;99.90;;;;;;4999327;28;20058;-80
2023/09/21 07:50:42;;;;;;;1.58;0.63;;;16.30;99.90;;;;;;5016747;28;20049;-80
2023/09/21 07:53:08;;;;;;;2.70;0.85;;;16.20;99.90;;;;;;5016618;28;20065;-80
2023/09/21 07:55:36;;;;;;;2.78;0.60;;;16.10;99.90;;;;;;4999367;28;20085;-79
2023/09/21 07:58:03;;;;;;;1.45;0.60;;;15.90;99.90;;;;;;4999586;28;20092;-81
2023/09/21 08:00:29;;;;;;;3.45;0.73;;;15.70;99.90;;;;;;4999288;28;20184;-80
2023/09/21 08:02:55;;;;;;;4.35;0.80;;;15.70;99.90;;;;;;4998868;28;20054;-81
2023/09/21 08:05:20;;;;;;;2.40;0.70;;;15.60;99.90;;;;;;5016410;28;20237;-81
2023/09/21 08:07:47;;;;;;;2.67;1.10;;;15.60;99.90;;;;;;4998757;28;20037;-81
2023/09/21 08:10:13;;;;;;;2.72;0.90;;;15.60;99.90;;;;;;4998966;28;20056;-81
2023/09/21 08:12:41;;;;;;;3.45;0.90;;;15.60;99.90;;;;;;4998699;28;20464;-81
2023/09/21 08:15:10;;;;;;;3.70;0.70;;;15.50;99.90;;;;;;4998699;28;20050;-80
2023/09/21 08:17:36;;;;;;;2.28;0.75;;;15.50;99.90;;;;;;4998538;28;20485;-81
2023/09/21 08:20:13;;;;;;;3.33;1.33;;;15.50;99.90;;;;;;4998454;28;20046;-82
2023/09/21 08:22:39;;;;;;;3.33;1.15;;;15.50;99.90;;;;;;4998455;28;20045;-81
2023/09/21 08:25:06;;;;;;;2.50;0.70;;;15.50;99.90;;;;;;4998406;28;20133;-82
2023/09/21 08:27:32;;;;;;;2.50;0.85;;;15.50;99.90;;;;;;4998566;28;20069;-81
2023/09/21 08:29:57;;;;;;;3.65;0.98;;;15.50;99.90;;;;;;4998316;28;20067;-81
2023/09/21 08:32:26;;;;;;;4.32;1.10;;;15.50;99.90;;;;;;4998500;28;20130;-82
2023/09/21 08:34:52;;;;;;;3.05;1.45;;;15.50;99.90;;;;;;4998119;28;20148;-81
2023/09/21 08:37:18;;;;;;;3.15;1.02;;;15.50;99.90;;;;;;4998220;28;20050;-82
2023/09/21 08:39:45;;;;;;;3.55;0.80;;;15.50;99.90;;;;;;4998152;28;20049;-80
2023/09/21 08:42:10;;;;;;;3.67;0.82;;;15.50;99.90;;;;;;4998231;28;20060;-82
2023/09/21 08:44:43;;;;;;;3.75;0.88;;;15.50;99.90;;;;;;4998186;28;20046;-77
2023/09/21 08:47:13;;;;;;;1.90;0.88;;;15.40;99.90;;;;;;4997509;28;20046;-79
2023/09/21 08:49:43;;;;;;;3.97;0.88;;;15.40;99.90;;;;;;4997977;28;20049;-80
2023/09/21 08:52:09;;;;;;;3.10;0.80;;;15.40;99.90;;;;;;4998003;28;20081;-81
2023/09/21 08:54:40;;;;;;;3.15;1.08;;;15.30;99.90;;;;;;4997987;28;20049;-80
2023/09/21 08:57:09;;;;;;;4.18;1.20;;;15.30;99.90;;;;;;4998114;28;20413;-80
2023/09/21 08:59:39;;;;;;;3.80;1.00;;;15.30;99.90;;;;;;4997848;28;20053;-80
2023/09/21 09:02:08;;;;;;;3.38;1.15;;;15.30;99.90;;;;;;5015740;28;20100;-82
2023/09/21 09:04:33;;;;;;;4.35;1.05;;;15.30;99.90;;;;;;5015286;28;20069;-83
2023/09/21 09:06:59;;;;;;;4.07;1.00;;;15.30;99.90;;;;;;4997936;28;20076;-81
2023/09/21 09:09:25;;;;;;;5.30;1.10;;;15.30;99.90;;;;;;4997900;28;20370;-82
2023/09/21 09:11:51;;;;;;;3.00;0.80;;;15.40;99.90;;;;;;4997685;28;20379;-89
2023/09/21 09:14:19;;;;;;;3.72;0.90;;;15.40;99.90;;;;;;4997786;28;20509;-80
2023/09/21 09:16:46;;;;;;;3.67;0.85;;;15.40;99.90;;;;;;5015275;28;20072;-80
2023/09/21 09:19:12;;;;;;;4.55;1.02;;;15.40;99.90;;;;;;4997693;28;20077;-80
2023/09/21 09:21:40;;;;;;;4.05;1.15;;;15.50;99.90;;;;;;4997282;28;20048;-80
2023/09/21 09:24:08;;;;;;;4.88;0.93;;;15.50;99.90;;;;;;4997768;28;20489;-80
2023/09/21 09:26:35;;;;;;;5.00;0.80;;;15.50;99.90;;;;;;4997439;28;20058;-78
2023/09/21 09:29:12;;;;;;;3.20;0.82;;;15.40;99.90;;;;;;4997355;28;20050;-79
2023/09/21 09:31:41;;;;;;;3.33;0.75;;;15.40;99.90;;;;;;4997319;28;20482;-79
2023/09/21 09:34:16;;;;;;;2.20;0.65;;;15.30;99.90;;;;;;4997484;28;20088;-80
2023/09/21 09:36:50;;;;;;;3.03;0.60;;;15.30;99.90;;;;;;4996979;28;20061;-81
2023/09/21 09:39:15;;;;;;;2.60;0.90;;;15.30;99.90;;;;;;4997056;28;20054;-82
2023/09/21 09:41:42;;;;;;;2.78;1.00;;;15.30;99.90;;;;;;4996878;28;20053;-80
2023/09/21 09:44:11;;;;;;;2.88;0.95;;;15.30;99.90;;;;;;4996935;28;20046;-78
2023/09/21 09:46:42;;;;;;;3.50;1.10;;;15.40;99.90;;;;;;4996952;28;20042;-85
2023/09/21 09:49:09;;;;;;;3.95;0.80;;;15.40;99.90;;;;;;4997215;28;20103;-78
2023/09/21 09:51:41;;;;;;;3.97;0.90;;;15.30;99.90;;;;;;4997066;28;20050;-81
2023/09/21 09:54:11;;;;;;;2.38;0.85;;;15.40;99.90;;;;;;4997077;28;20045;-80
2023/09/21 09:56:44;;;;;;;2.40;0.70;;;15.50;99.90;;;;;;4996749;28;20046;-81
2023/09/21 09:59:14;;;;;;;2.92;0.93;;;15.50;99.90;;;;;;4996065;28;20056;-80
2023/09/21 10:01:44;;;;;;;3.08;0.82;;;15.50;99.90;;;;;;5014300;28;20054;-81
2023/09/21 10:04:10;;;;;;;4.03;0.93;;;15.40;99.90;;;;;;4996921;28;20046;-81
2023/09/21 10:06:36;;;;;;;2.33;0.73;;;15.40;99.90;;;;;;4996883;28;20126;-80
2023/09/21 10:09:09;;;;;;;2.35;0.70;;;15.40;99.90;;;;;;4996615;28;20494;-80
2023/09/21 10:11:35;;;;;;;1.92;0.65;;;15.30;99.90;;;;;;4996840;28;20141;-80
2023/09/21 10:14:00;;;;;;;2.92;1.08;;;15.40;99.90;;;;;;4996818;28;20476;-81
2023/09/21 10:16:27;;;;;;;4.25;1.10;;;15.40;99.90;;;;;;4996552;28;20042;-86
2023/09/21 10:18:57;;;;;;;3.95;0.93;;;15.40;99.90;;;;;;4996787;28;20053;-83
2023/09/21 10:21:29;;;;;;;3.05;0.77;;;15.30;99.90;;;;;;4996504;28;20053;-80
2023/09/21 10:24:18;;;;;;;3.13;0.80;;;15.30;99.90;;;;;;5013887;28;20057;-79
2023/09/21 10:26:53;;;;;;;2.58;0.80;;;15.30;99.90;;;;;;4996556;28;20375;-79
2023/09/21 10:29:38;;;;;;;3.67;0.75;;;15.30;99.90;;;;;;4996413;28;20046;-82
2023/09/21 10:32:07;;;;;;;4.05;0.95;;;15.40;99.90;;;;;;4996042;28;20405;-81
2023/09/21 10:34:33;;;;;;;2.53;0.80;;;15.40;99.90;;;;;;4996385;28;20045;-79
2023/09/21 10:37:10;;;;;;;2.53;0.98;;;15.40;99.90;;;;;;4996001;28;20394;-81
2023/09/21 10:39:37;;;;;;;2.40;1.00;;;15.40;99.90;;;;;;4996057;28;20486;-79
2023/09/21 10:42:08;;;;;;;2.28;0.95;;;15.40;99.90;;;;;;4995946;28;20056;-78
2023/09/21 10:44:53;;;;;;;3.03;1.00;;;15.50;99.90;;;;;;5013576;28;20113;-80
2023/09/21 10:47:35;;;;;;;3.35;0.90;;;15.40;99.90;;;;;;4996151;28;20462;-86
2023/09/21 10:50:02;;;;;;;2.10;0.70;;;15.40;99.90;;;;;;4996076;28;20049;-84
2023/09/21 10:52:28;;;;;;;1.77;0.80;;;15.50;99.90;;;;;;4996028;28;20046;-80
2023/09/21 10:54:56;;;;;;;3.83;0.73;;;15.50;99.90;;;;;;4995813;28;20042;-81
2023/09/21 10:57:29;;;;;;;3.15;1.13;;;15.50;99.90;;;;;;4996101;28;20065;-81
2023/09/21 10:59:59;;;;;;;1.83;0.80;;;15.50;99.90;;;;;;4996200;28;20053;-79
2023/09/21 11:02:26;;;;;;;5.10;1.10;;;15.40;99.90;;;;;;4995760;28;20523;-81
2023/09/21 11:04:52;;;;;;;2.30;0.70;;;15.50;99.90;;;;;;4995824;28;20084;-81
2023/09/21 11:07:21;;;;;;;2.65;0.80;;;15.50;99.90;;;;;;4995670;28;20077;-81
2023/09/21 11:09:48;;;;;;;2.75;0.90;;;15.50;99.90;;;;;;5015091;28;20398;-80
2023/09/21 11:12:14;;;;;;;2.97;0.50;;;15.50;99.90;;;;;;5017447;28;20050;-80
2023/09/21 11:14:44;;;;;;;1.85;0.60;;;15.50;99.90;;;;;;4999691;28;20049;-80
2023/09/21 11:17:12;;;;;;;3.70;1.10;;;15.50;99.90;;;;;;4999605;28;20500;-80
2023/09/21 11:19:41;;;;;;;2.60;0.98;;;15.50;99.90;;;;;;4999616;28;20049;-79
2023/09/21 11:22:08;;;;;;;2.80;1.10;;;15.50;99.90;;;;;;4999638;28;20073;-83
2023/09/21 11:24:36;;;;;;;3.13;0.93;;;15.50;99.90;;;;;;4999744;28;20046;-81
2023/09/21 11:27:14;;;;;;;3.10;1.00;;;15.40;99.90;;;;;;4999606;28;20077;-80
2023/09/21 11:29:42;;;;;;;4.50;1.00;;;15.50;99.90;;;;;;4999481;28;20045;-81
2023/09/21 11:32:15;;;;;;;3.03;0.95;;;15.40;99.90;;;;;;5017319;28;20057;-81
2023/09/21 11:34:40;;;;;;;;;;;15.50;99.90;;;;;;4999700;28;20054;-79
2023/09/21 11:37:09;;;;;;;3.42;0.80;;;15.40;99.90;;;;;;4999288;28;20491;-81
2023/09/21 11:39:49;;;;;;;4.00;1.10;;;15.40;99.90;;;;;;4999405;28;20520;-81
2023/09/21 11:42:17;;;;;;;3.88;1.02;;;15.50;99.90;;;;;;5016829;28;20058;-80
2023/09/21 11:44:43;;;;;;;4.70;1.30;;;15.40;99.90;;;;;;4999357;28;20057;-80
2023/09/21 11:47:09;;;;;;;2.25;0.80;;;15.50;99.90;;;;;;4999675;28;20050;-81
2023/09/21 11:49:43;;;;;;;2.83;1.05;;;15.60;99.90;;;;;;4999250;28;20405;-81
2023/09/21 11:52:10;;;;;;;3.55;1.30;;;15.60;99.90;;;;;;4999301;28;20046;-81
2023/09/21 11:54:38;;;;;;;2.33;0.85;;;15.60;99.90;;;;;;4999032;28;20050;-81
2023/09/21 11:57:09;;;;;;;2.72;1.20;;;15.60;99.90;;;;;;4999053;28;20050;-81
2023/09/21 11:59:39;;;;;;;3.53;1.38;;;15.60;99.90;;;;;;4999321;28;20084;-81
2023/09/21 12:02:14;;;;;;;3.78;1.55;;;15.60;99.90;;;;;;4998904;28;20064;-81
2023/09/21 12:04:46;;;;;;;4.20;1.73;;;15.60;99.90;;;;;;4999260;28;20060;-81
2023/09/21 12:07:11;;;;;;;4.68;1.52;;;15.60;99.90;;;;;;4998764;28;20498;-81
2023/09/21 12:09:40;;;;;;;2.92;1.30;;;15.60;99.90;;;;;;4999119;28;20049;-82
2023/09/21 12:12:12;;;;;;;4.15;1.48;;;15.60;99.90;;;;;;4998550;28;20034;-79
2023/09/21 12:14:42;;;;;;;4.45;1.75;;;15.60;99.90;;;;;;5024885;28;20058;-80
2023/09/21 12:17:09;;;;;;;3.78;1.50;;;15.70;99.90;;;;;;5001856;28;20038;-81
2023/09/21 12:19:44;;;;;;;3.70;1.17;;;15.60;99.90;;;;;;4994240;28;20045;-80
2023/09/21 12:22:12;;;;;;;3.65;1.45;;;15.60;99.90;;;;;;4993542;28;20208;-82
2023/09/21 12:24:37;;;;;;;3.08;1.40;;;15.60;99.90;;;;;;4993602;28;20038;-81
2023/09/21 12:27:06;;;;;;;2.85;1.00;;;15.60;99.90;;;;;;5011291;28;20052;-78
2023/09/21 12:29:33;;;;;;;6.88;1.55;;;15.60;99.90;;;;;;4994337;28;20096;-78
2023/09/21 12:32:05;;;;;;;4.53;2.00;;;15.70;99.90;;;;;;4994406;28;20073;-80
2023/09/21 12:34:36;;;;;;;3.17;1.50;;;15.70;99.90;;;;;;5011833;28;20501;-79
2023/09/21 12:37:05;;;;;;;3.08;1.27;;;15.80;99.90;;;;;;5011093;28;20053;-79
2023/09/21 12:39:31;;;;;;;3.28;0.90;;;15.90;99.90;;;;;;4993732;28;20056;-80
2023/09/21 12:41:56;;;;;;;2.30;0.98;;;15.80;99.90;;;;;;4994225;28;20045;-80
2023/09/21 12:44:22;;;;;;;2.97;1.10;;;15.80;99.90;;;;;;4994197;28;20048;-80
2023/09/21 12:46:48;;;;;;;2.15;0.85;;;15.80;99.90;;;;;;4993833;28;20100;-80
2023/09/21 12:49:14;;;;;;;4.75;1.02;;;15.80;99.90;;;;;;4995280;28;20394;-83
2023/09/21 12:51:40;;;;;;;3.13;1.02;;;15.80;99.90;;;;;;4998000;28;20500;-82
2023/09/21 12:54:08;;;;;;;3.08;1.00;;;15.80;99.90;;;;;;4997867;28;20054;-80
2023/09/21 12:56:34;;;;;;;5.25;1.20;;;15.80;99.90;;;;;;4998180;28;20112;-80
2023/09/21 12:59:00;;;;;;;2.72;1.00;;;15.80;99.90;;;;;;4998076;28;20049;-81